sensor_id;sensor_type;location;lat;lon;timestamp;P1;durP1;ratioP1;P2;durP2;ratioP2
22515;SDS011;11424;48.860;9.624;2024-03-02T00:02:07;5.2;;;7.7;;
22515;SDS011;11424;48.860;9.624;2024-03-02T00:07:07;7.7;;;9.6;;
22515;SDS011;11424;48.860;9.624;2024-03-02T00:12:07;8.1;;;11;;
22515;SDS011;11424;48.860;9.624;2024-03-02T00:17:07;37.9;;;46.9;;
22515;SDS011;11424;48.860;9.624;2024-03-02T00:22:07;56.9;;;85.8;;
22515;SDS011;11424;48.860;9.624;2024-03-02T00:27:07;74.7;;;121;;
22515;SDS011;11424;48.860;9.624;2024-03-02T00:32:07;108;;;245.3;;
22515;SDS011;11424;48.860;9.624;2024-03-02T00:37:07;104.5;;;233.8;;
22515;SDS011;11424;48.860;9.624;2024-03-02T00:42:07;145.3;;;339.6;;
22515;SDS011;11424;48.860;9.624;2024-03-02T00:47:07;134.3;;;314.6;;
22515;SDS011;11424;48.860;9.624;2024-03-02T00:52:07;59;;;114.5;;
22515;SDS011;11424;48.860;9.624;2024-03-02T00:57:08;134.8;;;312.6;;
22515;SDS011;11424;48.860;9.624;2024-03-02T01:02:07;126.8;;;286.1;;
22515;SDS011;11424;48.860;9.624;2024-03-02T01:07:07;103.6;;;230.5;;
22515;SDS011;11424;48.860;9.624;2024-03-02T01:12:07;87;;;163.1;;
22515;SDS011;11424;48.860;9.624;2024-03-02T01:17:07;70.9;;;128.1;;
22515;SDS011;11424;48.860;9.624;2024-03-02T01:22:07;60.9;;;99;;
22515;SDS011;11424;48.860;9.624;2024-03-02T01:27:07;110.3;;;252.3;;
22515;SDS011;11424;48.860;9.624;2024-03-02T01:32:07;55.9;;;97.4;;
22515;SDS011;11424;48.860;9.624;2024-03-02T01:37:07;108.5;;;245.4;;
22515;SDS011;11424;48.860;9.624;2024-03-02T01:42:07;43.7;;;83.5;;
22515;SDS011;11424;48.860;9.624;2024-03-02T01:47:07;19.8;;;25.1;;
22515;SDS011;11424;48.860;9.624;2024-03-02T01:52:07;31.5;;;38.3;;
22515;SDS011;11424;48.860;9.624;2024-03-02T01:57:07;16.7;;;21.3;;
22515;SDS011;11424;48.860;9.624;2024-03-02T02:02:07;22.8;;;26.9;;
22515;SDS011;11424;48.860;9.624;2024-03-02T02:07:07;17;;;20;;
22515;SDS011;11424;48.860;9.624;2024-03-02T02:12:07;6.6;;;9.3;;
22515;SDS011;11424;48.860;9.624;2024-03-02T02:17:07;20.4;;;25.6;;
22515;SDS011;11424;48.860;9.624;2024-03-02T02:22:07;21;;;28.1;;
22515;SDS011;11424;48.860;9.624;2024-03-02T02:27:07;30.8;;;41.5;;
22515;SDS011;11424;48.860;9.624;2024-03-02T02:32:07;5.7;;;8.3;;
22515;SDS011;11424;48.860;9.624;2024-03-02T02:37:07;5.7;;;8;;
22515;SDS011;11424;48.860;9.624;2024-03-02T02:42:07;5.5;;;7.9;;
22515;SDS011;11424;48.860;9.624;2024-03-02T02:47:07;5.6;;;8.7;;
22515;SDS011;11424;48.860;9.624;2024-03-02T02:52:07;10.7;;;14.7;;
22515;SDS011;11424;48.860;9.624;2024-03-02T02:57:07;26.2;;;37.1;;
22515;SDS011;11424;48.860;9.624;2024-03-02T03:02:07;5.3;;;8.3;;
22515;SDS011;11424;48.860;9.624;2024-03-02T03:07:07;5.4;;;7.5;;
22515;SDS011;11424;48.860;9.624;2024-03-02T03:12:07;5.6;;;7.8;;
22515;SDS011;11424;48.860;9.624;2024-03-02T03:17:07;6.6;;;9.7;;
22515;SDS011;11424;48.860;9.624;2024-03-02T03:22:07;6.8;;;9.6;;
22515;SDS011;11424;48.860;9.624;2024-03-02T03:27:07;7;;;9.7;;
22515;SDS011;11424;48.860;9.624;2024-03-02T03:32:07;7.1;;;10.9;;
22515;SDS011;11424;48.860;9.624;2024-03-02T03:37:07;7.4;;;9.6;;
22515;SDS011;11424;48.860;9.624;2024-03-02T03:42:07;6.2;;;9.4;;
22515;SDS011;11424;48.860;9.624;2024-03-02T03:47:07;6.6;;;10.3;;
22515;SDS011;11424;48.860;9.624;2024-03-02T03:52:07;8.2;;;11.9;;
22515;SDS011;11424;48.860;9.624;2024-03-02T03:57:07;13.4;;;19.4;;
22515;SDS011;11424;48.860;9.624;2024-03-02T04:02:07;32.3;;;41;;
22515;SDS011;11424;48.860;9.624;2024-03-02T04:07:07;11.7;;;18.4;;
22515;SDS011;11424;48.860;9.624;2024-03-02T04:12:07;8.5;;;11.9;;
22515;SDS011;11424;48.860;9.624;2024-03-02T04:17:07;10.5;;;15.2;;
22515;SDS011;11424;48.860;9.624;2024-03-02T04:22:07;11;;;15.7;;
22515;SDS011;11424;48.860;9.624;2024-03-02T04:27:07;10.5;;;16.4;;
22515;SDS011;11424;48.860;9.624;2024-03-02T04:32:07;25.1;;;32.5;;
22515;SDS011;11424;48.860;9.624;2024-03-02T04:37:07;19.5;;;24.3;;
22515;SDS011;11424;48.860;9.624;2024-03-02T04:42:07;5.8;;;8.5;;
22515;SDS011;11424;48.860;9.624;2024-03-02T04:47:07;11.3;;;16.8;;
22515;SDS011;11424;48.860;9.624;2024-03-02T04:52:07;6;;;9.6;;
22515;SDS011;11424;48.860;9.624;2024-03-02T04:57:07;5.7;;;9.4;;
22515;SDS011;11424;48.860;9.624;2024-03-02T05:02:07;9.2;;;13.2;;
22515;SDS011;11424;48.860;9.624;2024-03-02T05:07:07;7.4;;;12.1;;
22515;SDS011;11424;48.860;9.624;2024-03-02T05:12:07;7.3;;;10.8;;
22515;SDS011;11424;48.860;9.624;2024-03-02T05:17:07;5.5;;;9.3;;
22515;SDS011;11424;48.860;9.624;2024-03-02T05:22:07;9.8;;;13.1;;
22515;SDS011;11424;48.860;9.624;2024-03-02T05:27:07;10.3;;;12.8;;
22515;SDS011;11424;48.860;9.624;2024-03-02T05:32:07;5.1;;;8;;
22515;SDS011;11424;48.860;9.624;2024-03-02T05:37:07;4.9;;;7.7;;
22515;SDS011;11424;48.860;9.624;2024-03-02T05:42:07;7.3;;;9.7;;
22515;SDS011;11424;48.860;9.624;2024-03-02T05:47:07;4.7;;;7;;
22515;SDS011;11424;48.860;9.624;2024-03-02T05:52:07;4.3;;;6.7;;
22515;SDS011;11424;48.860;9.624;2024-03-02T05:57:07;5.2;;;8.3;;
22515;SDS011;11424;48.860;9.624;2024-03-02T06:02:07;4.5;;;7.8;;
22515;SDS011;11424;48.860;9.624;2024-03-02T06:07:07;18.4;;;22.5;;
22515;SDS011;11424;48.860;9.624;2024-03-02T06:12:07;29.2;;;39.2;;
22515;SDS011;11424;48.860;9.624;2024-03-02T06:17:07;11.7;;;18.6;;
22515;SDS011;11424;48.860;9.624;2024-03-02T06:22:07;17.4;;;23.8;;
22515;SDS011;11424;48.860;9.624;2024-03-02T06:27:07;22.1;;;31.3;;
22515;SDS011;11424;48.860;9.624;2024-03-02T06:32:07;38.2;;;47.4;;
22515;SDS011;11424;48.860;9.624;2024-03-02T06:37:07;24;;;28.9;;
22515;SDS011;11424;48.860;9.624;2024-03-02T06:42:07;41.4;;;51.6;;
22515;SDS011;11424;48.860;9.624;2024-03-02T06:47:07;17.7;;;23.6;;
22515;SDS011;11424;48.860;9.624;2024-03-02T06:52:07;4.9;;;8.7;;
22515;SDS011;11424;48.860;9.624;2024-03-02T06:57:07;4.7;;;6.4;;
22515;SDS011;11424;48.860;9.624;2024-03-02T07:02:07;6.4;;;8.1;;
22515;SDS011;11424;48.860;9.624;2024-03-02T07:07:07;5.4;;;7.6;;
22515;SDS011;11424;48.860;9.624;2024-03-02T07:12:07;4.3;;;5.8;;
22515;SDS011;11424;48.860;9.624;2024-03-02T07:17:07;4.5;;;6.9;;
22515;SDS011;11424;48.860;9.624;2024-03-02T07:22:07;4;;;5.5;;
22515;SDS011;11424;48.860;9.624;2024-03-02T07:27:07;3.6;;;5.1;;
22515;SDS011;11424;48.860;9.624;2024-03-02T07:32:07;3.5;;;5.1;;
22515;SDS011;11424;48.860;9.624;2024-03-02T07:37:07;3.3;;;5;;
22515;SDS011;11424;48.860;9.624;2024-03-02T07:42:07;3.4;;;5;;
22515;SDS011;11424;48.860;9.624;2024-03-02T07:47:07;3.6;;;5.8;;
22515;SDS011;11424;48.860;9.624;2024-03-02T07:52:07;3.8;;;5.2;;
22515;SDS011;11424;48.860;9.624;2024-03-02T07:57:07;3.3;;;5.5;;
22515;SDS011;11424;48.860;9.624;2024-03-02T08:02:07;3.5;;;5.4;;
22515;SDS011;11424;48.860;9.624;2024-03-02T08:07:07;3.5;;;6.2;;
22515;SDS011;11424;48.860;9.624;2024-03-02T08:12:07;4;;;6.3;;
22515;SDS011;11424;48.860;9.624;2024-03-02T08:17:07;3.5;;;5;;
22515;SDS011;11424;48.860;9.624;2024-03-02T08:22:07;3.6;;;5;;
22515;SDS011;11424;48.860;9.624;2024-03-02T08:27:07;3.7;;;4.4;;
22515;SDS011;11424;48.860;9.624;2024-03-02T08:32:07;3.2;;;4.1;;
22515;SDS011;11424;48.860;9.624;2024-03-02T08:37:07;2.8;;;3.6;;
22515;SDS011;11424;48.860;9.624;2024-03-02T08:42:07;3.1;;;4.3;;
22515;SDS011;11424;48.860;9.624;2024-03-02T08:47:07;3;;;3.8;;
22515;SDS011;11424;48.860;9.624;2024-03-02T08:52:07;2.5;;;3.3;;
22515;SDS011;11424;48.860;9.624;2024-03-02T08:57:07;3.2;;;4.4;;
22515;SDS011;11424;48.860;9.624;2024-03-02T09:02:07;3;;;3.8;;
22515;SDS011;11424;48.860;9.624;2024-03-02T09:07:07;2.7;;;3.6;;
22515;SDS011;11424;48.860;9.624;2024-03-02T09:12:07;6.1;;;6.7;;
22515;SDS011;11424;48.860;9.624;2024-03-02T09:17:07;9.6;;;10.3;;
22515;SDS011;11424;48.860;9.624;2024-03-02T09:22:07;2.4;;;3.3;;
22515;SDS011;11424;48.860;9.624;2024-03-02T09:27:07;2;;;2.2;;
22515;SDS011;11424;48.860;9.624;2024-03-02T09:32:08;2;;;2.2;;
22515;SDS011;11424;48.860;9.624;2024-03-02T09:37:07;2.2;;;2.8;;
22515;SDS011;11424;48.860;9.624;2024-03-02T09:42:07;1.8;;;2.1;;
22515;SDS011;11424;48.860;9.624;2024-03-02T09:47:07;2;;;2.4;;
22515;SDS011;11424;48.860;9.624;2024-03-02T09:52:07;2.1;;;2.3;;
22515;SDS011;11424;48.860;9.624;2024-03-02T09:57:07;2.3;;;3.2;;
22515;SDS011;11424;48.860;9.624;2024-03-02T10:02:07;1.7;;;2.1;;
22515;SDS011;11424;48.860;9.624;2024-03-02T10:07:11;2.6;;;3.1;;
22515;SDS011;11424;48.860;9.624;2024-03-02T10:12:08;2.1;;;2.5;;
22515;SDS011;11424;48.860;9.624;2024-03-02T10:17:08;2;;;2.2;;
22515;SDS011;11424;48.860;9.624;2024-03-02T10:22:07;1.9;;;2.3;;
22515;SDS011;11424;48.860;9.624;2024-03-02T10:27:08;2;;;2.5;;
22515;SDS011;11424;48.860;9.624;2024-03-02T10:32:09;1.9;;;2.1;;
22515;SDS011;11424;48.860;9.624;2024-03-02T10:37:07;1.9;;;2.3;;
22515;SDS011;11424;48.860;9.624;2024-03-02T10:42:08;2;;;2.2;;
22515;SDS011;11424;48.860;9.624;2024-03-02T10:47:07;2.2;;;2.4;;
22515;SDS011;11424;48.860;9.624;2024-03-02T10:52:07;2.5;;;2.7;;
22515;SDS011;11424;48.860;9.624;2024-03-02T10:57:07;2.4;;;2.6;;
22515;SDS011;11424;48.860;9.624;2024-03-02T11:02:07;1.7;;;1.9;;
22515;SDS011;11424;48.860;9.624;2024-03-02T11:07:08;2;;;2.3;;
22515;SDS011;11424;48.860;9.624;2024-03-02T11:12:09;1.1;;;1.2;;
22515;SDS011;11424;48.860;9.624;2024-03-02T11:17:07;1.1;;;1.2;;
22515;SDS011;11424;48.860;9.624;2024-03-02T11:22:07;1.1;;;1.2;;
22515;SDS011;11424;48.860;9.624;2024-03-02T11:27:07;1.3;;;1.4;;
22515;SDS011;11424;48.860;9.624;2024-03-02T11:32:13;1.6;;;1.8;;
22515;SDS011;11424;48.860;9.624;2024-03-02T11:37:08;1.9;;;2;;
22515;SDS011;11424;48.860;9.624;2024-03-02T11:42:07;1.9;;;2.1;;
22515;SDS011;11424;48.860;9.624;2024-03-02T11:47:07;1.4;;;1.5;;
22515;SDS011;11424;48.860;9.624;2024-03-02T11:52:08;1.3;;;1.5;;
22515;SDS011;11424;48.860;9.624;2024-03-02T11:57:07;0.9;;;0.9;;
22515;SDS011;11424;48.860;9.624;2024-03-02T12:02:12;2;;;2.2;;
22515;SDS011;11424;48.860;9.624;2024-03-02T12:07:07;1.2;;;1.3;;
22515;SDS011;11424;48.860;9.624;2024-03-02T12:12:08;1.3;;;1.4;;
22515;SDS011;11424;48.860;9.624;2024-03-02T12:17:07;0.9;;;0.9;;
22515;SDS011;11424;48.860;9.624;2024-03-02T12:22:08;1;;;1.1;;
22515;SDS011;11424;48.860;9.624;2024-03-02T12:27:07;1.5;;;1.6;;
22515;SDS011;11424;48.860;9.624;2024-03-02T12:32:07;0.9;;;1.1;;
22515;SDS011;11424;48.860;9.624;2024-03-02T12:37:08;1.7;;;1.8;;
22515;SDS011;11424;48.860;9.624;2024-03-02T12:42:07;1.5;;;1.6;;
22515;SDS011;11424;48.860;9.624;2024-03-02T12:47:07;1.6;;;1.8;;
22515;SDS011;11424;48.860;9.624;2024-03-02T12:52:07;1.1;;;1.1;;
22515;SDS011;11424;48.860;9.624;2024-03-02T12:57:07;0.9;;;0.9;;
22515;SDS011;11424;48.860;9.624;2024-03-02T13:02:07;1.2;;;1.2;;
22515;SDS011;11424;48.860;9.624;2024-03-02T13:07:07;1.7;;;1.8;;
22515;SDS011;11424;48.860;9.624;2024-03-02T13:12:07;0.9;;;0.9;;
22515;SDS011;11424;48.860;9.624;2024-03-02T13:17:07;2.9;;;3.1;;
22515;SDS011;11424;48.860;9.624;2024-03-02T13:22:07;2.6;;;2.7;;
22515;SDS011;11424;48.860;9.624;2024-03-02T13:27:07;1;;;1;;
22515;SDS011;11424;48.860;9.624;2024-03-02T13:32:07;0.8;;;0.8;;
22515;SDS011;11424;48.860;9.624;2024-03-02T13:37:07;1;;;1.1;;
22515;SDS011;11424;48.860;9.624;2024-03-02T13:42:07;0.7;;;0.7;;
22515;SDS011;11424;48.860;9.624;2024-03-02T13:47:07;0.6;;;0.6;;
22515;SDS011;11424;48.860;9.624;2024-03-02T13:52:07;0.8;;;0.8;;
22515;SDS011;11424;48.860;9.624;2024-03-02T13:57:08;1.1;;;1.4;;
22515;SDS011;11424;48.860;9.624;2024-03-02T14:02:08;0.7;;;1;;
22515;SDS011;11424;48.860;9.624;2024-03-02T14:07:07;0.8;;;0.8;;
22515;SDS011;11424;48.860;9.624;2024-03-02T14:12:07;0.6;;;0.6;;
22515;SDS011;11424;48.860;9.624;2024-03-02T14:17:07;1;;;1.1;;
22515;SDS011;11424;48.860;9.624;2024-03-02T14:22:07;1;;;1;;
22515;SDS011;11424;48.860;9.624;2024-03-02T14:27:07;0.9;;;0.9;;
22515;SDS011;11424;48.860;9.624;2024-03-02T14:32:07;1;;;1.2;;
22515;SDS011;11424;48.860;9.624;2024-03-02T14:37:07;0.8;;;0.9;;
22515;SDS011;11424;48.860;9.624;2024-03-02T14:42:07;0.8;;;0.8;;
22515;SDS011;11424;48.860;9.624;2024-03-02T14:47:07;1.3;;;1.4;;
22515;SDS011;11424;48.860;9.624;2024-03-02T14:52:08;1;;;1;;
22515;SDS011;11424;48.860;9.624;2024-03-02T14:57:07;1;;;1.1;;
22515;SDS011;11424;48.860;9.624;2024-03-02T15:02:08;1.1;;;1.1;;
22515;SDS011;11424;48.860;9.624;2024-03-02T15:07:07;0.9;;;0.9;;
22515;SDS011;11424;48.860;9.624;2024-03-02T15:12:07;0.8;;;0.8;;
22515;SDS011;11424;48.860;9.624;2024-03-02T15:17:07;0.7;;;0.7;;
22515;SDS011;11424;48.860;9.624;2024-03-02T15:22:07;0.7;;;0.7;;
22515;SDS011;11424;48.860;9.624;2024-03-02T15:27:08;1;;;1;;
22515;SDS011;11424;48.860;9.624;2024-03-02T15:32:07;1.3;;;1.4;;
22515;SDS011;11424;48.860;9.624;2024-03-02T15:37:07;1.4;;;1.5;;
22515;SDS011;11424;48.860;9.624;2024-03-02T15:42:07;1.6;;;1.7;;
22515;SDS011;11424;48.860;9.624;2024-03-02T15:47:07;1.6;;;1.7;;
22515;SDS011;11424;48.860;9.624;2024-03-02T15:52:08;2.2;;;3.1;;
22515;SDS011;11424;48.860;9.624;2024-03-02T15:57:08;1.9;;;2.1;;
22515;SDS011;11424;48.860;9.624;2024-03-02T16:02:07;2.1;;;2.4;;
22515;SDS011;11424;48.860;9.624;2024-03-02T16:07:08;2.2;;;2.7;;
22515;SDS011;11424;48.860;9.624;2024-03-02T16:12:08;1.7;;;1.8;;
22515;SDS011;11424;48.860;9.624;2024-03-02T16:17:08;1.9;;;2;;
22515;SDS011;11424;48.860;9.624;2024-03-02T16:22:07;2.4;;;2.6;;
22515;SDS011;11424;48.860;9.624;2024-03-02T16:27:08;2.3;;;2.5;;
22515;SDS011;11424;48.860;9.624;2024-03-02T16:32:07;1.9;;;2;;
22515;SDS011;11424;48.860;9.624;2024-03-02T16:37:07;2.1;;;2.3;;
22515;SDS011;11424;48.860;9.624;2024-03-02T16:42:08;2.5;;;2.7;;
22515;SDS011;11424;48.860;9.624;2024-03-02T16:47:08;2.5;;;2.7;;
22515;SDS011;11424;48.860;9.624;2024-03-02T16:52:08;2.8;;;3.1;;
22515;SDS011;11424;48.860;9.624;2024-03-02T16:57:08;2.2;;;2.4;;
22515;SDS011;11424;48.860;9.624;2024-03-02T17:02:08;3.1;;;3.4;;
22515;SDS011;11424;48.860;9.624;2024-03-02T17:07:08;6.5;;;10.9;;
22515;SDS011;11424;48.860;9.624;2024-03-02T17:12:08;4.5;;;6.1;;
22515;SDS011;11424;48.860;9.624;2024-03-02T17:17:08;5.3;;;6.7;;
22515;SDS011;11424;48.860;9.624;2024-03-02T17:22:08;5.3;;;7.8;;
22515;SDS011;11424;48.860;9.624;2024-03-02T17:27:08;5.9;;;8.4;;
22515;SDS011;11424;48.860;9.624;2024-03-02T17:32:08;5.7;;;8.3;;
22515;SDS011;11424;48.860;9.624;2024-03-02T17:37:08;5.5;;;8.5;;
22515;SDS011;11424;48.860;9.624;2024-03-02T17:42:08;5.7;;;9.1;;
22515;SDS011;11424;48.860;9.624;2024-03-02T17:47:08;4.5;;;6;;
22515;SDS011;11424;48.860;9.624;2024-03-02T17:52:08;4.9;;;6.8;;
22515;SDS011;11424;48.860;9.624;2024-03-02T17:57:08;4.5;;;6.8;;
22515;SDS011;11424;48.860;9.624;2024-03-02T18:02:08;4.9;;;7;;
22515;SDS011;11424;48.860;9.624;2024-03-02T18:07:08;5.2;;;7.7;;
22515;SDS011;11424;48.860;9.624;2024-03-02T18:12:08;6;;;8.1;;
22515;SDS011;11424;48.860;9.624;2024-03-02T18:17:08;7.3;;;10.5;;
22515;SDS011;11424;48.860;9.624;2024-03-02T18:22:08;7.4;;;9.9;;
22515;SDS011;11424;48.860;9.624;2024-03-02T18:27:08;8.4;;;12.5;;
22515;SDS011;11424;48.860;9.624;2024-03-02T18:32:08;9.5;;;13.7;;
22515;SDS011;11424;48.860;9.624;2024-03-02T18:37:08;9;;;13;;
22515;SDS011;11424;48.860;9.624;2024-03-02T18:42:08;8.3;;;13.2;;
22515;SDS011;11424;48.860;9.624;2024-03-02T18:47:08;9.3;;;14;;
22515;SDS011;11424;48.860;9.624;2024-03-02T18:52:08;9.8;;;14.6;;
22515;SDS011;11424;48.860;9.624;2024-03-02T18:57:08;9.4;;;13.9;;
22515;SDS011;11424;48.860;9.624;2024-03-02T19:02:08;11.7;;;16.8;;
22515;SDS011;11424;48.860;9.624;2024-03-02T19:07:08;10.3;;;14.3;;
22515;SDS011;11424;48.860;9.624;2024-03-02T19:12:08;10.9;;;16.5;;
22515;SDS011;11424;48.860;9.624;2024-03-02T19:17:08;11.4;;;17.4;;
22515;SDS011;11424;48.860;9.624;2024-03-02T19:22:08;11.5;;;18.1;;
22515;SDS011;11424;48.860;9.624;2024-03-02T19:27:08;11.5;;;16.8;;
22515;SDS011;11424;48.860;9.624;2024-03-02T19:32:08;10;;;16.3;;
22515;SDS011;11424;48.860;9.624;2024-03-02T19:37:08;11.3;;;18.5;;
22515;SDS011;11424;48.860;9.624;2024-03-02T19:42:08;8.6;;;12.4;;
22515;SDS011;11424;48.860;9.624;2024-03-02T19:47:08;9.8;;;14.2;;
22515;SDS011;11424;48.860;9.624;2024-03-02T19:52:08;8.7;;;14.8;;
22515;SDS011;11424;48.860;9.624;2024-03-02T19:57:08;9.7;;;15.9;;
22515;SDS011;11424;48.860;9.624;2024-03-02T20:02:08;9.1;;;14.4;;
22515;SDS011;11424;48.860;9.624;2024-03-02T20:07:08;8.8;;;13.2;;
22515;SDS011;11424;48.860;9.624;2024-03-02T20:12:08;9;;;13.6;;
22515;SDS011;11424;48.860;9.624;2024-03-02T20:17:08;8.1;;;12.9;;
22515;SDS011;11424;48.860;9.624;2024-03-02T20:22:08;9.1;;;13.6;;
22515;SDS011;11424;48.860;9.624;2024-03-02T20:27:08;7.7;;;12.1;;
22515;SDS011;11424;48.860;9.624;2024-03-02T20:32:08;7.9;;;12.3;;
22515;SDS011;11424;48.860;9.624;2024-03-02T20:37:08;8;;;12.8;;
22515;SDS011;11424;48.860;9.624;2024-03-02T20:42:08;7.1;;;11.4;;
22515;SDS011;11424;48.860;9.624;2024-03-02T20:47:08;6.9;;;10.6;;
22515;SDS011;11424;48.860;9.624;2024-03-02T20:52:08;12.7;;;17.1;;
22515;SDS011;11424;48.860;9.624;2024-03-02T20:57:08;12.1;;;18.7;;
22515;SDS011;11424;48.860;9.624;2024-03-02T21:02:08;10.4;;;17.4;;
22515;SDS011;11424;48.860;9.624;2024-03-02T21:07:08;14;;;23.7;;
22515;SDS011;11424;48.860;9.624;2024-03-02T21:12:08;12.5;;;20.6;;
22515;SDS011;11424;48.860;9.624;2024-03-02T21:17:08;12.4;;;21.6;;
22515;SDS011;11424;48.860;9.624;2024-03-02T21:22:08;13.7;;;21.3;;
22515;SDS011;11424;48.860;9.624;2024-03-02T21:27:09;16.1;;;27.3;;
22515;SDS011;11424;48.860;9.624;2024-03-02T21:32:08;23;;;39.4;;
22515;SDS011;11424;48.860;9.624;2024-03-02T21:37:08;26.9;;;41.9;;
22515;SDS011;11424;48.860;9.624;2024-03-02T21:42:08;16.4;;;25.4;;
22515;SDS011;11424;48.860;9.624;2024-03-02T21:47:08;14.1;;;19.9;;
22515;SDS011;11424;48.860;9.624;2024-03-02T21:52:08;12.9;;;16.9;;
22515;SDS011;11424;48.860;9.624;2024-03-02T21:57:08;16.5;;;23;;
22515;SDS011;11424;48.860;9.624;2024-03-02T22:02:08;19.7;;;27.5;;
22515;SDS011;11424;48.860;9.624;2024-03-02T22:07:08;12.2;;;18.9;;
22515;SDS011;11424;48.860;9.624;2024-03-02T22:12:08;10;;;14.8;;
22515;SDS011;11424;48.860;9.624;2024-03-02T22:17:08;9.1;;;13.8;;
22515;SDS011;11424;48.860;9.624;2024-03-02T22:22:08;8.9;;;15.4;;
22515;SDS011;11424;48.860;9.624;2024-03-02T22:27:08;8.4;;;13.1;;
22515;SDS011;11424;48.860;9.624;2024-03-02T22:32:08;8.3;;;13.9;;
22515;SDS011;11424;48.860;9.624;2024-03-02T22:37:08;8.7;;;16.1;;
22515;SDS011;11424;48.860;9.624;2024-03-02T22:42:08;9.2;;;15.4;;
22515;SDS011;11424;48.860;9.624;2024-03-02T22:47:08;8.5;;;13.7;;
22515;SDS011;11424;48.860;9.624;2024-03-02T22:52:08;8.9;;;14.7;;
22515;SDS011;11424;48.860;9.624;2024-03-02T22:57:08;8.3;;;13.7;;
22515;SDS011;11424;48.860;9.624;2024-03-02T23:02:08;9.8;;;16;;
22515;SDS011;11424;48.860;9.624;2024-03-02T23:07:08;9.5;;;15.9;;
22515;SDS011;11424;48.860;9.624;2024-03-02T23:12:08;10.7;;;19.6;;
22515;SDS011;11424;48.860;9.624;2024-03-02T23:17:08;11.7;;;22.3;;
22515;SDS011;11424;48.860;9.624;2024-03-02T23:22:08;27.9;;;54.5;;
22515;SDS011;11424;48.860;9.624;2024-03-02T23:27:08;19;;;35;;
22515;SDS011;11424;48.860;9.624;2024-03-02T23:32:08;11.4;;;20.5;;
22515;SDS011;11424;48.860;9.624;2024-03-02T23:37:08;10.3;;;17.9;;
22515;SDS011;11424;48.860;9.624;2024-03-02T23:42:08;25.7;;;63.3;;
22515;SDS011;11424;48.860;9.624;2024-03-02T23:47:08;20.3;;;51.1;;
22515;SDS011;11424;48.860;9.624;2024-03-02T23:52:08;18.8;;;47.3;;
22515;SDS011;11424;48.860;9.624;2024-03-02T23:57:08;20.2;;;50.1;;
